createdAt,value
2023-11-21T00:02:19.569Z,14.93
2023-11-21T00:04:46.871Z,21.67
2023-11-21T00:07:13.584Z,19.13
2023-11-21T00:09:40.191Z,15.45
2023-11-21T00:12:07.139Z,15.93
2023-11-21T00:14:34.315Z,9.90
2023-11-21T00:17:00.891Z,19.50
2023-11-21T00:19:27.496Z,26.10
2023-11-21T00:21:54.038Z,14.02
2023-11-21T00:24:20.641Z,18.08
2023-11-21T00:26:49.807Z,19.75
2023-11-21T00:29:18.531Z,16.35
2023-11-21T00:31:46.224Z,18.33
2023-11-21T00:34:13.829Z,21.02
2023-11-21T00:36:41.336Z,17.25
2023-11-21T00:39:08.685Z,13.50
2023-11-21T00:41:37.715Z,18.75
2023-11-21T00:44:04.802Z,19.92
2023-11-21T00:46:31.452Z,25.45
2023-11-21T00:48:58.615Z,15.80
2023-11-21T00:51:25.712Z,23.65
2023-11-21T00:53:52.372Z,17.23
2023-11-21T00:56:19.591Z,21.25
2023-11-21T00:58:50.993Z,16.92
2023-11-21T01:01:18.470Z,15.07
2023-11-21T01:03:47.496Z,24.95
2023-11-21T01:06:16.150Z,11.98
2023-11-21T01:08:43.447Z,13.15
2023-11-21T01:11:11.608Z,19.15
2023-11-21T01:13:38.408Z,16.02
2023-11-21T01:16:05.436Z,17.20
2023-11-21T01:18:32.032Z,17.20
2023-11-21T01:20:58.668Z,11.73
2023-11-21T01:23:25.182Z,14.50
2023-11-21T01:25:53.113Z,8.65
2023-11-21T01:28:21.196Z,12.82
2023-11-21T01:30:47.839Z,17.20
2023-11-21T01:33:16.881Z,15.45
2023-11-21T01:35:44.111Z,15.15
2023-11-21T01:38:10.748Z,6.72
2023-11-21T01:40:37.595Z,13.68
2023-11-21T01:43:07.050Z,15.00
2023-11-21T01:45:35.155Z,14.82
2023-11-21T01:48:04.121Z,15.13
2023-11-21T01:50:31.468Z,14.82
2023-11-21T01:52:58.935Z,7.43
2023-11-21T01:55:28.174Z,16.73
2023-11-21T01:57:57.486Z,12.13
2023-11-21T02:00:25.023Z,15.18
2023-11-21T02:02:53.306Z,5.38
2023-11-21T02:05:20.663Z,8.15
2023-11-21T02:07:52.156Z,13.20
2023-11-21T02:10:23.962Z,13.93
2023-11-21T02:12:51.513Z,12.07
2023-11-21T02:15:21.611Z,14.25
2023-11-21T02:17:53.383Z,14.85
2023-11-21T02:20:21.630Z,14.10
2023-11-21T02:23:02.236Z,15.05
2023-11-21T02:25:34.381Z,13.43
2023-11-21T02:28:03.551Z,10.02
2023-11-21T02:30:32.781Z,12.40
2023-11-21T02:32:59.431Z,11.18
2023-11-21T02:35:29.140Z,9.75
2023-11-21T02:37:56.104Z,17.58
2023-11-21T02:40:23.163Z,11.10
2023-11-21T02:42:52.451Z,13.65
2023-11-21T02:45:22.053Z,8.75
2023-11-21T02:47:50.496Z,11.25
2023-11-21T02:50:20.275Z,6.80
2023-11-21T02:52:47.142Z,10.80
2023-11-21T02:55:13.818Z,10.93
2023-11-21T02:57:40.452Z,8.13
2023-11-21T03:00:16.748Z,11.27
2023-11-21T03:02:44.737Z,5.82
2023-11-21T03:05:11.642Z,5.70
2023-11-21T03:07:39.762Z,6.40
2023-11-21T03:10:10.664Z,10.93
2023-11-21T03:12:38.787Z,11.82
2023-11-21T03:15:07.655Z,8.10
2023-11-21T03:17:37.643Z,7.30
2023-11-21T03:20:06.063Z,7.22
2023-11-21T03:22:32.802Z,11.68
2023-11-21T03:24:59.800Z,8.60
2023-11-21T03:27:26.675Z,10.25
2023-11-21T03:29:53.481Z,10.70
2023-11-21T03:32:20.129Z,9.18
2023-11-21T03:34:59.072Z,9.10
2023-11-21T03:37:26.190Z,7.30
2023-11-21T03:39:53.006Z,9.75
2023-11-21T03:42:19.693Z,9.98
2023-11-21T03:44:46.341Z,9.70
2023-11-21T03:47:12.996Z,12.20
2023-11-21T03:49:39.850Z,9.52
2023-11-21T03:52:06.949Z,9.13
2023-11-21T03:54:33.459Z,7.68
2023-11-21T03:57:00.049Z,5.47
2023-11-21T03:59:26.705Z,7.43
2023-11-21T04:01:53.334Z,5.88
2023-11-21T04:04:20.980Z,10.05
2023-11-21T04:06:47.614Z,9.13
2023-11-21T04:09:14.127Z,15.88
2023-11-21T04:11:40.663Z,6.53
2023-11-21T04:14:07.672Z,9.43
2023-11-21T04:16:34.813Z,11.40
2023-11-21T04:19:01.472Z,10.18
2023-11-21T04:21:28.109Z,6.43
2023-11-21T04:23:54.687Z,19.52
2023-11-21T04:26:21.229Z,10.25
2023-11-21T04:28:47.813Z,11.90
2023-11-21T04:31:14.429Z,13.90
2023-11-21T04:33:41.082Z,16.63
2023-11-21T04:36:08.329Z,11.90
2023-11-21T04:38:35.351Z,11.07
2023-11-21T04:41:03.821Z,12.40
2023-11-21T04:43:30.961Z,11.20
2023-11-21T04:45:57.657Z,11.82
2023-11-21T04:48:24.396Z,8.25
2023-11-21T04:50:51.097Z,10.38
2023-11-21T04:53:17.665Z,12.95
2023-11-21T04:55:45.095Z,10.02
2023-11-21T04:58:13.164Z,9.55
2023-11-21T05:00:39.836Z,8.95
2023-11-21T05:03:08.434Z,10.43
2023-11-21T05:05:35.214Z,10.50
2023-11-21T05:08:02.902Z,16.25
2023-11-21T05:10:30.409Z,8.00
2023-11-21T05:12:57.057Z,15.77
2023-11-21T05:15:24.497Z,13.10
2023-11-21T05:17:53.449Z,12.15
2023-11-21T05:20:24.773Z,6.47
2023-11-21T05:22:51.545Z,4.70
2023-11-21T05:25:19.598Z,11.23
2023-11-21T05:27:47.711Z,8.55
2023-11-21T05:30:15.423Z,8.00
2023-11-21T05:32:45.595Z,12.95
2023-11-21T05:35:17.265Z,10.52
2023-11-21T05:37:45.605Z,9.15
2023-11-21T05:40:13.929Z,6.10
2023-11-21T05:42:41.920Z,10.63
2023-11-21T05:45:12.805Z,6.13
2023-11-21T05:47:47.536Z,8.38
2023-11-21T05:50:16.540Z,7.90
2023-11-21T05:52:48.379Z,7.32
2023-11-21T05:55:15.419Z,6.00
2023-11-21T05:57:43.355Z,7.95
2023-11-21T06:00:12.534Z,10.55
2023-11-21T06:02:40.708Z,7.90
2023-11-21T06:05:08.746Z,5.18
2023-11-21T06:07:37.060Z,11.50
2023-11-21T06:10:07.573Z,12.35
2023-11-21T06:12:37.189Z,7.25
2023-11-21T06:15:10.068Z,5.45
2023-11-21T06:17:38.092Z,6.93
2023-11-21T06:20:10.457Z,9.27
2023-11-21T06:22:41.623Z,6.75
2023-11-21T06:25:09.500Z,7.95
2023-11-21T06:27:39.593Z,8.63
2023-11-21T06:30:08.298Z,6.18
2023-11-21T06:32:35.854Z,7.72
2023-11-21T06:35:03.033Z,8.93
2023-11-21T06:37:30.405Z,6.38
2023-11-21T06:39:59.277Z,7.15
2023-11-21T06:42:30.301Z,9.48
2023-11-21T06:44:58.583Z,10.27
2023-11-21T06:47:30.917Z,10.32
2023-11-21T06:49:58.147Z,11.05
2023-11-21T06:52:24.777Z,7.55
2023-11-21T06:54:51.366Z,4.90
2023-11-21T06:57:18.408Z,10.32
2023-11-21T06:59:45.293Z,16.15
2023-11-21T07:02:12.110Z,9.52
2023-11-21T07:04:38.823Z,4.82
2023-11-21T07:07:05.693Z,9.60
2023-11-21T07:09:32.354Z,9.57
2023-11-21T07:11:59.156Z,8.30
2023-11-21T07:14:25.782Z,9.90
2023-11-21T07:16:53.990Z,9.32
2023-11-21T07:19:21.287Z,6.57
2023-11-21T07:21:48.100Z,3.78
2023-11-21T07:24:15.226Z,5.47
2023-11-21T07:26:41.824Z,7.75
2023-11-21T07:29:10.090Z,8.65
2023-11-21T07:31:36.844Z,6.68
2023-11-21T07:34:03.534Z,8.20
2023-11-21T07:36:30.143Z,2.08
2023-11-21T07:38:56.761Z,7.63
2023-11-21T07:41:28.861Z,9.45
2023-11-21T07:43:58.504Z,5.45
2023-11-21T07:46:27.691Z,7.93
2023-11-21T07:48:54.619Z,4.25
2023-11-21T07:51:21.575Z,3.58
2023-11-21T07:53:50.265Z,8.90
2023-11-21T07:56:16.870Z,2.92
2023-11-21T07:58:46.255Z,6.70
2023-11-21T08:01:13.970Z,7.90
2023-11-21T08:03:43.154Z,8.90
2023-11-21T08:06:10.775Z,5.88
2023-11-21T08:08:37.353Z,6.63
2023-11-21T08:11:04.685Z,4.13
2023-11-21T08:13:34.078Z,10.68
2023-11-21T08:16:06.007Z,1.65
2023-11-21T08:18:39.862Z,6.30
2023-11-21T08:21:13.657Z,17.20
2023-11-21T08:23:40.668Z,5.07
2023-11-21T08:26:14.594Z,4.20
2023-11-21T08:28:45.205Z,8.32
2023-11-21T08:31:16.146Z,6.68
2023-11-21T08:33:42.964Z,2.60
2023-11-21T08:36:12.118Z,5.68
2023-11-21T08:38:38.820Z,1.52
2023-11-21T08:41:08.788Z,5.07
2023-11-21T08:43:41.536Z,7.03
2023-11-21T08:46:10.322Z,6.47
2023-11-21T08:48:37.676Z,4.10
2023-11-21T08:51:05.784Z,6.10
2023-11-21T08:53:32.319Z,6.30
2023-11-21T08:55:58.939Z,5.30
2023-11-21T08:58:25.532Z,9.13
2023-11-21T09:00:52.554Z,5.22
2023-11-21T09:03:19.233Z,6.85
2023-11-21T09:05:45.918Z,5.43
2023-11-21T09:08:13.033Z,6.22
2023-11-21T09:10:40.871Z,5.25
2023-11-21T09:13:11.354Z,10.20
2023-11-21T09:15:38.093Z,8.38
2023-11-21T09:18:06.245Z,4.18
2023-11-21T09:20:33.074Z,4.80
2023-11-21T09:22:59.699Z,9.00
2023-11-21T09:25:26.304Z,7.85
2023-11-21T09:27:52.877Z,3.70
2023-11-21T09:30:19.641Z,7.00
2023-11-21T09:32:46.943Z,7.30
2023-11-21T09:35:15.499Z,5.50
2023-11-21T09:37:42.762Z,6.60
2023-11-21T09:40:14.597Z,10.07
2023-11-21T09:42:52.137Z,3.05
2023-11-21T09:45:27.105Z,6.00
2023-11-21T09:47:57.094Z,5.78
2023-11-21T09:50:24.601Z,11.52
2023-11-21T09:53:02.041Z,7.15
2023-11-21T09:55:36.868Z,9.77
2023-11-21T09:58:06.290Z,7.53
2023-11-21T10:00:34.314Z,6.90
2023-11-21T10:03:01.452Z,3.83
2023-11-21T10:05:29.521Z,4.45
2023-11-21T10:07:58.745Z,5.32
2023-11-21T10:10:26.673Z,8.32
2023-11-21T10:12:57.694Z,14.63
2023-11-21T10:15:28.044Z,4.78
2023-11-21T10:17:56.486Z,4.32
2023-11-21T10:20:25.753Z,4.13
2023-11-21T10:22:52.835Z,5.90
2023-11-21T10:25:21.574Z,5.03
2023-11-21T10:27:51.710Z,3.58
2023-11-21T10:30:19.210Z,10.07
2023-11-21T10:32:46.231Z,1.75
2023-11-21T10:35:13.346Z,3.30
2023-11-21T10:37:44.497Z,4.50
2023-11-21T10:40:14.820Z,6.13
2023-11-21T10:42:42.973Z,2.17
2023-11-21T10:45:15.045Z,3.72
2023-11-21T10:47:43.073Z,2.75
2023-11-21T10:50:12.294Z,1.17
2023-11-21T10:52:41.210Z,1.67
2023-11-21T10:55:22.490Z,5.45
2023-11-21T10:57:52.174Z,2.25
2023-11-21T11:00:21.806Z,3.17
2023-11-21T11:02:53.278Z,5.35
2023-11-21T11:05:21.400Z,4.47
2023-11-21T11:07:55.918Z,1.75
2023-11-21T11:10:23.919Z,2.58
2023-11-21T11:12:53.572Z,2.58
2023-11-21T11:15:20.943Z,1.92
2023-11-21T11:17:49.626Z,1.55
2023-11-21T11:20:19.172Z,6.13
2023-11-21T11:23:05.484Z,6.32
2023-11-21T11:25:49.126Z,3.03
2023-11-21T11:28:21.374Z,4.78
2023-11-21T11:31:12.904Z,5.55
2023-11-21T11:33:51.660Z,2.45
2023-11-21T11:36:57.392Z,6.05
2023-11-21T11:39:42.855Z,2.47
2023-11-21T11:42:19.991Z,5.18
2023-11-21T11:44:53.304Z,2.83
2023-11-21T11:47:30.045Z,3.38
2023-11-21T11:49:58.189Z,4.28
2023-11-21T11:52:40.831Z,6.72
2023-11-21T11:55:21.343Z,3.35
2023-11-21T11:57:57.015Z,1.20
2023-11-21T12:00:36.094Z,6.53
2023-11-21T12:03:06.697Z,3.83
2023-11-21T12:05:40.363Z,5.10
2023-11-21T12:08:08.528Z,4.25
2023-11-21T12:10:38.087Z,5.55
2023-11-21T12:13:11.211Z,1.13
2023-11-21T12:15:39.398Z,7.15
2023-11-21T12:18:07.060Z,3.33
2023-11-21T12:20:39.681Z,2.67
2023-11-21T12:23:06.954Z,3.22
2023-11-21T12:25:34.328Z,4.82
2023-11-21T12:28:01.995Z,2.47
2023-11-21T12:30:32.094Z,3.60
2023-11-21T12:33:01.692Z,6.75
2023-11-21T12:35:35.154Z,3.78
2023-11-21T12:38:06.441Z,2.70
2023-11-21T12:40:33.358Z,1.60
2023-11-21T12:43:03.092Z,1.95
2023-11-21T12:45:30.515Z,4.38
2023-11-21T12:48:09.128Z,5.30
2023-11-21T12:50:37.746Z,1.35
2023-11-21T12:53:06.444Z,2.17
2023-11-21T12:55:38.725Z,6.00
2023-11-21T12:58:11.764Z,4.88
2023-11-21T13:00:44.278Z,2.88
2023-11-21T13:03:14.373Z,3.88
2023-11-21T13:05:47.761Z,2.53
2023-11-21T13:08:20.666Z,4.25
2023-11-21T13:10:50.831Z,3.05
2023-11-21T13:13:23.719Z,4.82
2023-11-21T13:16:01.744Z,7.72
2023-11-21T13:18:29.614Z,7.50
2023-11-21T13:20:59.003Z,7.20
2023-11-21T13:23:26.969Z,5.57
2023-11-21T13:26:02.440Z,2.15
2023-11-21T13:28:35.805Z,3.50
2023-11-21T13:31:10.655Z,2.65
2023-11-21T13:33:43.949Z,2.40
2023-11-21T13:36:11.933Z,4.93
2023-11-21T13:38:43.391Z,3.88
2023-11-21T13:41:11.528Z,8.57
2023-11-21T13:43:39.230Z,3.53
2023-11-21T13:46:16.432Z,1.42
2023-11-21T13:48:44.191Z,7.80
2023-11-21T13:51:19.920Z,4.00
2023-11-21T13:53:49.379Z,1.75
2023-11-21T13:56:20.857Z,3.55
2023-11-21T13:58:53.928Z,2.65
2023-11-21T14:01:25.956Z,17.60
2023-11-21T14:03:59.165Z,8.33
2023-11-21T14:06:33.839Z,4.72
2023-11-21T14:09:01.767Z,6.00
2023-11-21T14:11:33.062Z,4.80
2023-11-21T14:14:03.350Z,5.82
2023-11-21T14:16:29.973Z,4.63
2023-11-21T14:19:16.841Z,5.60
2023-11-21T14:21:47.580Z,16.60
2023-11-21T14:24:14.859Z,5.93
2023-11-21T14:26:43.254Z,3.33
2023-11-21T14:29:10.228Z,9.93
2023-11-21T14:31:37.258Z,2.35
2023-11-21T14:34:03.990Z,9.60
2023-11-21T14:36:30.535Z,3.53
2023-11-21T14:38:57.141Z,6.32
2023-11-21T14:41:23.759Z,6.95
2023-11-21T14:43:51.367Z,4.05
2023-11-21T14:46:20.647Z,6.13
2023-11-21T14:49:00.748Z,6.05
2023-11-21T14:51:31.406Z,6.72
2023-11-21T14:54:07.777Z,5.30
2023-11-21T14:56:35.678Z,4.07
2023-11-21T14:59:17.832Z,7.30
2023-11-21T15:01:56.124Z,6.82
2023-11-21T15:04:38.567Z,5.75
2023-11-21T15:07:06.419Z,4.78
2023-11-21T15:09:33.681Z,3.03
2023-11-21T15:12:16.683Z,4.38
2023-11-21T15:14:51.056Z,4.45
2023-11-21T15:17:27.136Z,3.17
2023-11-21T15:19:55.056Z,25.02
2023-11-21T15:22:22.188Z,7.97
2023-11-21T15:24:50.465Z,6.72
2023-11-21T15:27:18.177Z,3.25
2023-11-21T15:29:45.120Z,4.50
2023-11-21T15:32:12.613Z,3.92
2023-11-21T15:34:39.871Z,23.13
2023-11-21T15:37:10.937Z,5.22
2023-11-21T15:39:38.057Z,5.53
2023-11-21T15:42:06.074Z,6.68
2023-11-21T15:44:34.376Z,3.60
2023-11-21T15:47:01.202Z,2.90
2023-11-21T15:49:29.737Z,4.07
2023-11-21T15:52:00.774Z,4.00
2023-11-21T15:54:27.984Z,5.97
2023-11-21T15:57:00.494Z,3.72
2023-11-21T15:59:35.221Z,3.08
2023-11-21T16:02:05.735Z,5.00
2023-11-21T16:04:32.564Z,3.45
2023-11-21T16:07:00.792Z,4.70
2023-11-21T16:09:34.186Z,5.60
2023-11-21T16:12:04.701Z,2.83
2023-11-21T16:14:58.429Z,4.00
2023-11-21T16:17:25.317Z,1.23
2023-11-21T16:19:52.150Z,5.75
2023-11-21T16:22:18.807Z,3.88
2023-11-21T16:24:45.357Z,3.72
2023-11-21T16:27:12.250Z,9.93
2023-11-21T16:29:39.792Z,2.47
2023-11-21T16:32:07.763Z,5.72
2023-11-21T16:34:35.371Z,4.10
2023-11-21T16:37:02.044Z,2.65
2023-11-21T16:39:29.269Z,3.45
2023-11-21T16:41:56.058Z,3.22
2023-11-21T16:44:23.434Z,5.68
2023-11-21T16:46:57.525Z,4.85
2023-11-21T16:49:25.061Z,5.78
2023-11-21T16:51:52.664Z,3.35
2023-11-21T16:54:21.990Z,2.33
2023-11-21T16:56:48.683Z,5.78
2023-11-21T16:59:15.828Z,3.60
2023-11-21T17:01:43.085Z,1.95
2023-11-21T17:04:10.710Z,5.00
2023-11-21T17:06:37.596Z,3.28
2023-11-21T17:09:05.425Z,3.28
2023-11-21T17:11:32.524Z,6.95
2023-11-21T17:14:00.340Z,4.47
2023-11-21T17:16:27.188Z,7.18
2023-11-21T17:18:53.825Z,4.70
2023-11-21T17:21:26.289Z,6.82
2023-11-21T17:23:56.645Z,3.08
2023-11-21T17:26:23.525Z,8.68
2023-11-21T17:28:50.196Z,6.28
2023-11-21T17:31:19.103Z,2.58
2023-11-21T17:33:45.927Z,4.60
2023-11-21T17:36:14.999Z,6.20
2023-11-21T17:38:41.599Z,4.28
2023-11-21T17:41:08.957Z,6.63
2023-11-21T17:43:40.640Z,6.82
2023-11-21T17:46:09.524Z,8.35
2023-11-21T17:48:38.006Z,4.22
2023-11-21T17:51:05.121Z,5.05
2023-11-21T17:53:32.295Z,4.10
2023-11-21T17:56:00.027Z,4.45
2023-11-21T17:58:26.743Z,3.63
2023-11-21T18:00:54.206Z,2.72
2023-11-21T18:03:21.858Z,4.68
2023-11-21T18:05:48.670Z,5.43
2023-11-21T18:08:15.824Z,4.60
2023-11-21T18:10:42.500Z,5.45
2023-11-21T18:13:09.368Z,4.30
2023-11-21T18:15:36.025Z,6.78
2023-11-21T18:18:02.784Z,9.73
2023-11-21T18:20:29.392Z,4.75
2023-11-21T18:22:55.955Z,4.63
2023-11-21T18:25:22.785Z,7.65
2023-11-21T18:27:52.880Z,4.25
2023-11-21T18:30:19.538Z,4.78
2023-11-21T18:32:46.334Z,9.85
2023-11-21T18:35:13.134Z,2.72
2023-11-21T18:37:39.840Z,8.88
2023-11-21T18:40:07.154Z,5.35
2023-11-21T18:42:33.790Z,5.13
2023-11-21T18:45:00.697Z,7.97
2023-11-21T18:47:28.493Z,7.10
2023-11-21T18:49:56.241Z,12.43
2023-11-21T18:52:24.352Z,5.82
2023-11-21T18:54:51.214Z,5.50
2023-11-21T18:57:18.087Z,5.90
2023-11-21T18:59:45.490Z,7.35
2023-11-21T19:02:15.290Z,14.73
2023-11-21T19:04:42.063Z,4.55
2023-11-21T19:07:09.330Z,6.65
2023-11-21T19:09:36.691Z,6.40
2023-11-21T19:12:06.753Z,7.32
2023-11-21T19:14:33.345Z,6.00
2023-11-21T19:17:00.414Z,5.85
2023-11-21T19:19:27.542Z,4.15
2023-11-21T19:21:55.239Z,8.95
2023-11-21T19:24:21.997Z,7.63
2023-11-21T19:26:49.390Z,7.68
2023-11-21T19:29:16.336Z,7.93
2023-11-21T19:31:42.911Z,5.97
2023-11-21T19:34:10.558Z,7.75
2023-11-21T19:36:40.601Z,10.13
2023-11-21T19:39:07.194Z,3.92
2023-11-21T19:41:35.029Z,3.42
2023-11-21T19:44:02.822Z,5.45
2023-11-21T19:46:29.518Z,4.07
2023-11-21T19:48:56.193Z,5.45
2023-11-21T19:51:23.313Z,11.93
2023-11-21T19:53:50.131Z,8.65
2023-11-21T19:56:17.430Z,3.33
2023-11-21T19:58:44.062Z,6.40
2023-11-21T20:01:11.202Z,3.92
2023-11-21T20:03:38.143Z,7.22
2023-11-21T20:06:06.582Z,6.75
2023-11-21T20:08:35.815Z,2.70
2023-11-21T20:11:06.614Z,2.50
2023-11-21T20:13:33.547Z,4.50
2023-11-21T20:16:00.888Z,5.18
2023-11-21T20:18:27.829Z,4.43
2023-11-21T20:20:54.606Z,4.47
2023-11-21T20:23:23.075Z,5.45
2023-11-21T20:25:50.009Z,4.72
2023-11-21T20:28:17.341Z,5.70
2023-11-21T20:30:43.892Z,3.20
2023-11-21T20:33:10.560Z,4.68
2023-11-21T20:35:38.497Z,6.88
2023-11-21T20:38:06.364Z,9.52
2023-11-21T20:40:33.075Z,4.30
2023-11-21T20:43:03.945Z,6.22
2023-11-21T20:45:31.822Z,8.52
2023-11-21T20:47:59.824Z,3.28
2023-11-21T20:50:27.178Z,8.00
2023-11-21T20:52:53.949Z,7.95
2023-11-21T20:55:21.572Z,8.07
2023-11-21T20:57:50.241Z,7.10
2023-11-21T21:00:19.378Z,3.67
2023-11-21T21:02:48.425Z,3.80
2023-11-21T21:05:16.400Z,6.97
2023-11-21T21:07:45.899Z,8.70
2023-11-21T21:10:12.573Z,2.53
2023-11-21T21:12:40.685Z,3.28
2023-11-21T21:15:11.079Z,4.05
2023-11-21T21:17:41.776Z,4.50
2023-11-21T21:20:11.547Z,7.95
2023-11-21T21:22:43.496Z,4.72
2023-11-21T21:25:13.367Z,9.38
2023-11-21T21:27:40.405Z,4.20
2023-11-21T21:30:08.148Z,7.53
2023-11-21T21:32:35.080Z,8.45
2023-11-21T21:35:02.281Z,3.55
2023-11-21T21:37:30.435Z,4.05
2023-11-21T21:39:59.581Z,3.70
2023-11-21T21:42:26.260Z,2.35
2023-11-21T21:44:54.298Z,4.95
2023-11-21T21:47:21.072Z,3.78
2023-11-21T21:49:48.579Z,3.15
2023-11-21T21:52:15.598Z,2.92
2023-11-21T21:54:42.197Z,3.03
2023-11-21T21:57:09.718Z,2.72
2023-11-21T21:59:38.944Z,5.85
2023-11-21T22:02:06.497Z,2.83
2023-11-21T22:04:35.238Z,5.05
2023-11-21T22:07:02.180Z,3.15
2023-11-21T22:09:29.795Z,5.68
2023-11-21T22:11:57.307Z,4.68
2023-11-21T22:14:24.074Z,3.75
2023-11-21T22:16:50.662Z,4.80
2023-11-21T22:19:17.382Z,2.47
2023-11-21T22:21:44.274Z,5.45
2023-11-21T22:24:11.383Z,3.33
2023-11-21T22:26:37.923Z,3.28
2023-11-21T22:29:05.669Z,3.55
2023-11-21T22:31:32.296Z,2.88
2023-11-21T22:33:58.845Z,4.18
2023-11-21T22:36:26.037Z,3.78
2023-11-21T22:38:52.609Z,5.80
2023-11-21T22:41:26.818Z,1.63
2023-11-21T22:43:54.770Z,5.03
2023-11-21T22:46:21.518Z,4.70
2023-11-21T22:48:49.219Z,4.70
2023-11-21T22:51:17.303Z,11.05
2023-11-21T22:53:43.925Z,6.05
2023-11-21T22:56:12.396Z,5.97
2023-11-21T22:58:39.387Z,5.93
2023-11-21T23:01:06.543Z,4.90
2023-11-21T23:03:33.346Z,5.32
2023-11-21T23:06:00.018Z,4.63
2023-11-21T23:08:27.332Z,4.18
2023-11-21T23:10:54.454Z,6.60
2023-11-21T23:13:21.414Z,7.95
2023-11-21T23:15:48.934Z,5.68
2023-11-21T23:18:15.936Z,3.40
2023-11-21T23:20:42.711Z,5.63
2023-11-21T23:23:09.915Z,3.58
2023-11-21T23:25:37.681Z,3.28
2023-11-21T23:28:05.352Z,7.10
2023-11-21T23:30:31.889Z,2.70
2023-11-21T23:32:58.608Z,3.92
2023-11-21T23:35:26.290Z,5.68
2023-11-21T23:37:53.303Z,2.83
2023-11-21T23:40:19.898Z,2.95
2023-11-21T23:42:46.414Z,4.57
2023-11-21T23:45:13.076Z,2.33
2023-11-21T23:47:39.776Z,1.85
2023-11-21T23:50:06.726Z,3.95
2023-11-21T23:52:33.548Z,2.05
2023-11-21T23:55:00.462Z,6.22
2023-11-21T23:57:27.011Z,0.98
2023-11-21T23:59:53.569Z,4.85
